Time;durP1;ratioP1;P1;durP2;ratioP2;P2;SDS_P1;SDS_P2;PMS_P1;PMS_P2;Temp;Humidity;BMP_temperature;BMP_pressure;BME280_temperature;BME280_humidity;BME280_pressure;Samples;Min_cycle;Max_cycle;Signal;HPM_P1;HPM_P2
2022/05/20 00:01:42;;;;;;;2.97;1.60;;;;;;;16.04;100.00;98899.34;15324407;19;20014;-79
2022/05/20 00:06:47;;;;;;;1.75;1.50;;;;;;;15.99;100.00;98893.63;15349322;19;20018;-79
2022/05/20 00:11:55;;;;;;;4.10;1.40;;;;;;;15.91;100.00;98890.97;15331371;19;20006;-78
2022/05/20 00:17:01;;;;;;;2.40;1.50;;;;;;;15.93;100.00;98903.38;15302072;19;20787;-78
2022/05/20 00:22:07;;;;;;;1.70;1.42;;;;;;;15.89;100.00;98912.03;15305251;19;20011;-78
2022/05/20 00:27:15;;;;;;;1.70;1.35;;;;;;;15.84;100.00;98921.59;15312038;19;20015;-79
2022/05/20 00:32:20;;;;;;;2.50;1.40;;;;;;;15.83;100.00;98908.16;15328886;19;20301;-79
2022/05/20 00:37:24;;;;;;;3.40;1.48;;;;;;;15.80;100.00;98913.97;15309992;19;20018;-80
2022/05/20 00:42:32;;;;;;;1.85;1.50;;;;;;;15.78;100.00;98908.72;15310763;19;20017;-80
2022/05/20 00:47:37;;;;;;;2.03;1.45;;;;;;;15.78;100.00;98897.00;15304210;19;20039;-79
2022/05/20 00:52:45;;;;;;;1.60;1.50;;;;;;;15.78;100.00;98902.44;15303650;19;20018;-78
2022/05/20 00:57:57;;;;;;;2.35;1.52;;;;;;;15.75;100.00;98902.81;15307535;19;20014;-78
2022/05/20 01:03:04;;;;;;;;;;;;;;;15.68;100.00;98898.13;15306970;19;20010;-78
2022/05/20 01:08:10;;;;;;;2.35;1.40;;;;;;;15.65;100.00;98894.91;15305798;19;19947;-78
2022/05/20 01:13:20;;;;;;;2.72;1.35;;;;;;;15.57;100.00;98902.09;15305419;19;20003;-79
2022/05/20 01:18:26;;;;;;;2.30;1.63;;;;;;;15.51;100.00;98888.41;15303945;19;20015;-78
2022/05/20 01:23:36;;;;;;;3.45;1.60;;;;;;;15.49;100.00;98890.44;15315540;19;20322;-81
2022/05/20 01:28:41;;;;;;;3.67;1.40;;;;;;;15.48;100.00;98902.31;15328445;19;20030;-82
2022/05/20 01:33:49;;;;;;;1.77;1.40;;;;;;;15.48;100.00;98911.34;15321568;19;20006;-82
2022/05/20 01:38:57;;;;;;;2.00;1.40;;;;;;;15.48;100.00;98905.03;15313058;19;20034;-80
2022/05/20 01:44:10;;;;;;;2.85;1.70;;;;;;;15.49;100.00;98901.31;15319211;19;20006;-81
2022/05/20 01:49:22;;;;;;;2.80;1.60;;;;;;;15.39;100.00;98896.97;15319024;19;20019;-80
2022/05/20 01:54:52;;;;;;;2.00;1.63;;;;;;;15.30;100.00;98889.06;15316081;19;20029;-82
2022/05/20 02:00:08;;;;;;;3.22;1.70;;;;;;;15.31;100.00;98897.03;15321842;19;20019;-79
2022/05/20 02:05:18;;;;;;;2.28;1.33;;;;;;;15.31;100.00;98902.47;15317480;19;20633;-83
2022/05/20 02:10:31;;;;;;;1.80;1.23;;;;;;;15.26;100.00;98902.16;15318303;19;20011;-80
2022/05/20 02:15:47;;;;;;;1.65;1.50;;;;;;;15.20;100.00;98911.03;15312169;19;20474;-81
2022/05/20 02:20:56;;;;;;;3.38;1.40;;;;;;;15.16;100.00;98912.41;15320647;19;20007;-80
2022/05/20 02:26:10;;;;;;;1.75;1.40;;;;;;;15.16;100.00;98901.53;15315527;19;20020;-81
2022/05/20 02:31:19;;;;;;;3.28;2.00;;;;;;;15.12;100.00;98901.06;15321870;19;20010;-80
2022/05/20 02:36:28;;;;;;;2.05;1.85;;;;;;;15.12;100.00;98905.63;15316909;19;20010;-82
2022/05/20 02:41:36;;;;;;;3.25;1.67;;;;;;;15.08;100.00;98906.00;15323098;19;20474;-82
2022/05/20 02:46:43;;;;;;;3.50;1.45;;;;;;;15.08;100.00;98921.41;15324990;19;20006;-82
2022/05/20 02:51:49;;;;;;;1.90;1.50;;;;;;;15.05;100.00;98914.50;15310157;19;20345;-81
2022/05/20 02:56:56;;;;;;;3.22;1.65;;;;;;;15.01;100.00;98918.56;15315730;19;20037;-80
2022/05/20 03:07:20;;;;;;;1.98;1.48;;;;;;;15.06;100.00;98923.47;15313773;19;20022;-82
2022/05/20 03:12:28;;;;;;;2.35;1.60;;;;;;;15.03;100.00;98918.41;15313745;19;20018;-80
2022/05/20 03:17:34;;;;;;;2.00;1.80;;;;;;;15.00;100.00;98921.47;15315415;19;20007;-80
2022/05/20 03:22:39;;;;;;;3.15;1.70;;;;;;;14.98;100.00;98928.94;15310850;19;20019;-79
2022/05/20 03:27:47;;;;;;;2.72;1.70;;;;;;;14.95;100.00;98938.28;15310648;19;20026;-79
2022/05/20 03:32:53;;;;;;;3.35;1.50;;;;;;;14.92;100.00;98941.34;15300833;19;20039;-80
2022/05/20 03:37:58;;;;;;;1.50;1.40;;;;;;;14.90;100.00;98951.53;15298738;19;20494;-79
2022/05/20 03:43:05;;;;;;;3.50;1.55;;;;;;;14.85;100.00;98941.22;15313284;19;20029;-77
2022/05/20 03:48:20;;;;;;;2.25;1.80;;;;;;;14.83;100.00;98961.41;15339707;19;20036;-77
2022/05/20 03:53:26;;;;;;;2.95;1.80;;;;;;;14.79;100.00;98961.75;15341590;19;20015;-79
2022/05/20 03:58:34;;;;;;;1.60;1.50;;;;;;;14.78;100.00;98964.66;15302413;19;20010;-79
2022/05/20 04:03:40;;;;;;;2.63;1.88;;;;;;;14.72;100.00;98960.75;15309226;19;20024;-76
2022/05/20 04:08:46;;;;;;;2.00;1.80;;;;;;;14.75;100.00;98971.28;15300405;19;20023;-75
2022/05/20 04:13:54;;;;;;;2.42;1.98;;;;;;;14.77;100.00;98974.63;15243309;19;20013;-77
2022/05/20 04:19:00;;;;;;;2.42;1.95;;;;;;;14.82;100.00;98992.25;15295021;19;20018;-77
2022/05/20 04:24:05;;;;;;;2.80;2.40;;;;;;;14.83;100.00;98993.94;15298427;19;20389;-77
2022/05/20 04:29:13;;;;;;;2.05;1.90;;;;;;;14.89;100.00;99004.09;15305787;19;20003;-76
2022/05/20 04:34:18;;;;;;;2.25;1.92;;;;;;;14.97;100.00;98995.09;15297829;19;20015;-76
2022/05/20 04:39:23;;;;;;;3.50;2.10;;;;;;;15.03;100.00;99010.69;15294838;19;20094;-76
2022/05/20 04:49:49;;;;;;;3.53;1.80;;;;;;;15.17;100.00;99011.78;15295139;19;20039;-77
2022/05/20 04:54:54;;;;;;;3.47;2.00;;;;;;;15.25;100.00;98996.31;15296333;19;20069;-79
2022/05/20 05:00:05;;;;;;;2.67;2.20;;;;;;;15.32;100.00;98998.31;15299345;19;20539;-76
2022/05/20 05:05:13;;;;;;;2.78;2.08;;;;;;;15.45;100.00;99005.91;15290607;19;20015;-76
2022/05/20 05:10:20;;;;;;;2.83;2.30;;;;;;;15.55;100.00;99015.50;15293932;19;20010;-77
2022/05/20 05:15:29;;;;;;;2.85;2.08;;;;;;;15.65;100.00;99012.56;15294422;19;20018;-77
2022/05/20 05:20:36;;;;;;;2.30;2.10;;;;;;;15.78;100.00;98997.53;15276225;19;20022;-78
2022/05/20 05:25:41;;;;;;;1.70;1.60;;;;;;;15.83;100.00;99005.97;15289572;19;20031;-77
2022/05/20 05:30:51;;;;;;;3.63;2.00;;;;;;;15.92;100.00;99032.09;15288610;19;20089;-78
2022/05/20 05:35:56;;;;;;;2.45;1.90;;;;;;;16.06;100.00;99032.31;15293349;19;20382;-77
2022/05/20 05:41:01;;;;;;;2.90;1.70;;;;;;;16.18;100.00;99012.69;15291918;19;20031;-77
2022/05/20 05:46:09;;;;;;;3.38;1.90;;;;;;;16.32;100.00;99021.91;15292064;19;20340;-78
2022/05/20 05:51:15;;;;;;;3.65;2.03;;;;;;;16.49;100.00;99040.81;15291454;19;20015;-78
2022/05/20 05:56:20;;;;;;;3.58;1.98;;;;;;;16.62;100.00;99027.44;15294134;19;20018;-77
2022/05/20 06:01:27;;;;;;;2.47;1.80;;;;;;;16.81;100.00;99030.63;15294327;19;20480;-78
2022/05/20 06:06:38;;;;;;;3.00;1.80;;;;;;;16.97;100.00;99010.56;15292233;19;20031;-78
2022/05/20 06:11:43;;;;;;;2.30;1.50;;;;;;;17.10;100.00;99012.63;15309680;19;20088;-77
2022/05/20 06:16:50;;;;;;;1.75;1.60;;;;;;;17.26;100.00;99006.13;15313943;19;20011;-77
2022/05/20 06:21:55;;;;;;;2.58;1.73;;;;;;;17.42;100.00;98999.63;15315800;19;20051;-79
2022/05/20 06:27:02;;;;;;;2.13;1.58;;;;;;;17.60;100.00;98984.72;15304302;19;20007;-77
2022/05/20 06:32:10;;;;;;;2.63;1.50;;;;;;;17.74;100.00;98980.25;15307419;19;20018;-77
2022/05/20 06:42:40;;;;;;;2.65;1.60;;;;;;;18.04;100.00;98964.66;15321356;19;20010;-78
2022/05/20 06:47:48;;;;;;;2.30;1.70;;;;;;;18.22;100.00;98963.31;15314049;19;20087;-77
2022/05/20 06:52:53;;;;;;;3.03;2.20;;;;;;;18.43;100.00;98965.16;15304721;19;20354;-78
2022/05/20 06:57:58;;;;;;;4.05;2.72;;;;;;;18.57;100.00;98931.47;15307365;19;20011;-78
2022/05/20 07:03:06;;;;;;;3.80;2.40;;;;;;;18.71;100.00;98931.50;15309461;19;20043;-78
2022/05/20 07:08:11;;;;;;;4.75;3.90;;;;;;;18.83;100.00;98929.91;15309480;19;20019;-77
2022/05/20 07:13:17;;;;;;;4.72;4.28;;;;;;;18.96;100.00;98933.75;15307410;19;20015;-77
2022/05/20 07:18:24;;;;;;;4.90;4.47;;;;;;;19.18;100.00;98934.50;15305641;19;20007;-77
2022/05/20 07:23:31;;;;;;;5.05;3.95;;;;;;;19.40;100.00;98936.03;15306719;19;20047;-77
2022/05/20 07:28:43;;;;;;;4.30;3.90;;;;;;;19.59;100.00;98944.47;15313288;19;20369;-80
2022/05/20 07:33:50;;;;;;;5.25;3.80;;;;;;;19.63;100.00;98934.00;15370167;19;20009;-79
2022/05/20 07:38:55;;;;;;;4.40;4.00;;;;;;;19.65;100.00;98937.34;15310571;19;20002;-77
2022/05/20 07:44:00;;;;;;;5.82;5.32;;;;;;;19.70;100.00;98923.91;15304009;19;20014;-77
2022/05/20 07:49:07;;;;;;;6.30;5.70;;;;;;;19.64;100.00;98925.56;15306517;19;20039;-78
2022/05/20 07:54:19;;;;;;;5.75;5.25;;;;;;;19.68;100.00;98923.25;15302320;19;20014;-78
2022/05/20 07:59:27;;;;;;;5.78;5.18;;;;;;;19.76;100.00;98908.56;15309971;19;20042;-78
2022/05/20 08:04:56;;;;;;;5.20;4.70;;;;;;;19.85;100.00;98890.88;15314069;19;20014;-80
2022/05/20 08:10:02;;;;;;;6.30;4.47;;;;;;;20.01;100.00;98886.91;15316877;19;20011;-78
2022/05/20 08:15:08;;;;;;;6.88;4.63;;;;;;;20.16;100.00;98873.03;15317661;19;20010;-78
2022/05/20 08:20:22;;;;;;;4.78;3.90;;;;;;;20.20;100.00;98878.91;15314295;19;20034;-78
2022/05/20 08:25:29;;;;;;;5.63;3.90;;;;;;;20.18;100.00;98876.38;15313301;19;20030;-79
2022/05/20 08:30:35;;;;;;;4.18;3.78;;;;;;;20.22;100.00;98880.38;15320327;19;20011;-79
2022/05/20 08:35:42;;;;;;;4.43;4.07;;;;;;;20.19;100.00;98883.53;15313918;19;20010;-78
2022/05/20 08:40:49;;;;;;;4.22;3.83;;;;;;;20.31;100.00;98879.09;15311003;19;20333;-78
2022/05/20 08:45:55;;;;;;;4.10;3.75;;;;;;;20.42;100.00;98854.84;15313839;19;20014;-78
2022/05/20 08:51:03;;;;;;;5.63;3.80;;;;;;;20.52;100.00;98848.94;15312931;19;20015;-78
2022/05/20 08:56:10;;;;;;;4.30;3.90;;;;;;;20.69;100.00;98838.34;15312264;19;20514;-78
2022/05/20 09:01:15;;;;;;;4.13;3.78;;;;;;;20.84;100.00;98818.91;15308540;19;20017;-78
2022/05/20 09:06:22;;;;;;;5.13;4.00;;;;;;;20.90;100.00;98802.44;15312434;19;20464;-77
2022/05/20 09:11:30;;;;;;;4.20;3.78;;;;;;;21.01;100.00;98789.13;15315000;19;20006;-77
2022/05/20 09:16:36;;;;;;;4.63;4.18;;;;;;;21.12;100.00;98785.66;15307291;19;20014;-78
2022/05/20 09:21:47;;;;;;;5.30;3.95;;;;;;;21.27;100.00;98803.69;15309281;19;20018;-79
2022/05/20 09:27:03;;;;;;;4.43;4.07;;;;;;;21.24;100.00;98814.03;15309724;19;20022;-80
2022/05/20 09:32:17;;;;;;;4.00;3.60;;;;;;;21.38;100.00;98797.50;15314448;19;20866;-78
2022/05/20 09:37:32;;;;;;;3.85;3.50;;;;;;;21.36;100.00;98788.66;15310706;19;20035;-79
2022/05/20 09:42:38;;;;;;;;;;;;;;;21.34;100.00;98763.41;15317446;19;20035;-77
2022/05/20 09:47:53;;;;;;;4.63;3.75;;;;;;;21.40;100.00;98757.84;15327278;19;19940;-78
2022/05/20 09:53:04;;;;;;;4.50;3.75;;;;;;;21.43;100.00;98750.22;15325228;19;20056;-78
2022/05/20 09:58:16;;;;;;;;;;;;;;;21.43;100.00;98737.38;15329402;19;20010;-79
2022/05/20 10:03:32;;;;;;;3.65;2.83;;;;;;;21.48;100.00;98737.53;15321000;19;19910;-80
2022/05/20 10:08:46;;;;;;;3.22;2.65;;;;;;;21.58;100.00;98725.25;15316781;19;20009;-77
2022/05/20 10:13:54;;;;;;;3.00;2.40;;;;;;;21.57;100.00;98713.41;15309440;19;20039;-78
2022/05/20 10:19:11;;;;;;;2.60;1.92;;;;;;;21.72;100.00;98704.03;15240618;19;20034;-76
2022/05/20 10:24:33;;;;;;;2.75;1.52;;;;;;;21.91;100.00;98702.16;15314097;19;20483;-78
2022/05/20 10:35:08;;;;;;;1.67;1.50;;;;;;;22.27;100.00;98670.25;15310447;19;20340;-78
2022/05/20 10:40:46;;;;;;;2.08;1.20;;;;;;;22.37;100.00;98640.34;15312845;19;20034;-78
2022/05/20 10:51:31;;;;;;;5.75;1.20;;;;;;;22.71;100.00;98620.63;15317688;19;20011;-78
2022/05/20 10:56:55;;;;;;;1.17;1.00;;;;;;;22.90;100.00;98621.38;15310996;19;20018;-78
2022/05/20 11:02:12;;;;;;;1.50;1.20;;;;;;;23.05;100.00;98621.75;15179796;19;20015;-78
2022/05/20 11:07:35;;;;;;;1.90;1.10;;;;;;;23.17;100.00;98610.75;15307781;19;20070;-78
2022/05/20 11:12:54;;;;;;;1.98;1.15;;;;;;;23.27;100.00;98612.13;15310414;19;20010;-77
2022/05/20 11:18:15;;;;;;;1.48;0.90;;;;;;;23.47;100.00;98593.34;15307745;19;20010;-78
2022/05/20 11:23:47;;;;;;;1.23;0.80;;;;;;;23.55;100.00;98583.88;15311837;19;20018;-77
2022/05/20 11:29:16;;;;;;;1.58;0.90;;;;;;;23.58;100.00;98571.53;15312241;19;20019;-78
2022/05/20 11:34:46;;;;;;;0.95;0.73;;;;;;;23.71;100.00;98554.78;15365997;19;20002;-78
2022/05/20 11:40:16;;;;;;;1.60;0.82;;;;;;;23.91;100.00;98570.00;15328561;19;20007;-78
2022/05/20 11:45:34;;;;;;;1.83;0.90;;;;;;;24.24;100.00;98544.53;15310697;19;20002;-77
2022/05/20 11:50:58;;;;;;;2.58;0.70;;;;;;;24.60;100.00;98550.66;15311708;19;20022;-77
2022/05/20 11:56:08;;;;;;;1.58;0.90;;;;;;;24.35;100.00;98556.53;15311132;19;20025;-77
2022/05/20 12:01:17;;;;;;;0.98;0.90;;;;;;;24.57;100.00;98559.41;15309937;19;20029;-78
2022/05/20 12:06:23;;;;;;;1.92;1.00;;;;;;;24.72;100.00;98547.00;15307502;19;20027;-77
2022/05/20 12:11:32;;;;;;;1.58;1.13;;;;;;;24.67;100.00;98542.22;15314676;19;20030;-77
2022/05/20 12:16:57;;;;;;;1.67;0.98;;;;;;;24.68;100.00;98535.63;15311988;19;20011;-79
2022/05/20 12:27:42;;;;;;;1.17;0.82;;;;;;;24.73;100.00;98521.13;15306993;19;20007;-77
2022/05/20 12:32:51;;;;;;;2.20;0.90;;;;;;;24.71;100.00;98498.50;15311007;19;20020;-78
2022/05/20 12:38:25;;;;;;;3.05;0.90;;;;;;;24.81;100.00;98487.63;15309390;19;20791;-78
2022/05/20 12:44:02;;;;;;;1.52;0.90;;;;;;;24.97;100.00;98469.38;15314274;19;20018;-79
2022/05/20 12:49:09;;;;;;;1.50;0.90;;;;;;;25.28;100.00;98450.50;15316331;19;20014;-78
2022/05/20 12:54:24;;;;;;;1.30;0.93;;;;;;;25.68;100.00;98430.00;15318237;19;20018;-78
2022/05/20 12:59:29;;;;;;;1.50;0.80;;;;;;;25.96;100.00;98416.19;15309657;19;20039;-78
2022/05/20 13:04:41;;;;;;;1.35;0.90;;;;;;;26.15;100.00;98402.84;15300923;19;20456;-78
2022/05/20 13:09:48;;;;;;;2.42;1.20;;;;;;;26.54;100.00;98383.25;15302081;19;20353;-78
2022/05/20 13:15:01;;;;;;;3.15;0.90;;;;;;;26.81;100.00;98368.50;15300997;19;20567;-77
2022/05/20 13:20:13;;;;;;;2.65;0.70;;;;;;;26.93;100.00;98362.72;15319101;19;20018;-77
2022/05/20 13:25:19;;;;;;;1.48;0.70;;;;;;;27.30;100.00;98331.31;15312225;19;20018;-77
2022/05/20 13:30:30;;;;;;;0.70;0.70;;;;;;;27.43;100.00;98320.84;15325541;19;20082;-77
2022/05/20 13:35:49;;;;;;;1.13;0.70;;;;;;;27.69;100.00;98325.28;15319474;19;20021;-78
2022/05/20 13:40:55;;;;;;;1.25;0.82;;;;;;;27.96;100.00;98302.03;15333574;19;20159;-78
2022/05/20 13:51:26;;;;;;;1.55;0.80;;;;;;;28.53;100.00;98273.41;15324087;19;20019;-79
2022/05/20 13:56:35;;;;;;;1.35;0.80;;;;;;;29.00;100.00;98268.47;15320190;19;20033;-79
2022/05/20 14:01:44;;;;;;;1.05;0.80;;;;;;;29.18;100.00;98251.16;15323652;19;20014;-78
2022/05/20 14:06:56;;;;;;;2.35;0.80;;;;;;;29.35;88.79;98244.41;15331636;19;20018;-79
2022/05/20 14:12:05;;;;;;;1.63;0.70;;;;;;;29.73;100.00;98241.03;15319554;19;20018;-80
2022/05/20 14:17:12;;;;;;;1.17;0.70;;;;;;;29.80;89.48;98231.25;15318987;19;20023;-80
2022/05/20 14:22:33;;;;;;;1.83;0.68;;;;;;;29.78;90.15;98222.38;15307487;19;20018;-78
2022/05/20 14:27:44;;;;;;;1.42;0.70;;;;;;;29.85;99.18;98222.03;15304633;19;20010;-80
2022/05/20 14:32:51;;;;;;;;;;;;;;;30.07;78.15;98199.31;15309188;19;20011;-77
2022/05/20 14:38:02;;;;;;;1.75;0.80;;;;;;;29.72;90.85;98183.84;15303599;19;19987;-78
2022/05/20 14:43:21;;;;;;;1.77;0.80;;;;;;;29.66;91.12;98171.97;15306894;19;20034;-79
2022/05/20 14:48:34;;;;;;;2.40;0.88;;;;;;;29.90;84.38;98148.94;15312802;19;20021;-78
2022/05/20 14:54:03;;;;;;;1.35;0.77;;;;;;;29.68;87.85;98133.66;15308394;19;20098;-79
2022/05/20 14:59:09;;;;;;;4.00;0.68;;;;;;;29.46;85.70;98087.78;15306112;19;20057;-78
2022/05/20 15:04:14;;;;;;;2.55;0.80;;;;;;;29.17;82.77;98104.41;15309047;19;20018;-79
2022/05/20 15:09:26;;;;;;;3.67;0.98;;;;;;;28.72;93.36;98091.50;15308937;19;20019;-79
2022/05/20 15:14:33;;;;;;;4.40;0.80;;;;;;;28.52;100.00;98108.25;15312291;19;20026;-79
2022/05/20 15:19:38;;;;;;;1.60;0.93;;;;;;;28.22;95.63;98110.09;15305765;19;20010;-78
2022/05/20 15:24:50;;;;;;;2.65;1.10;;;;;;;27.86;98.24;98124.88;15300525;19;20498;-81
2022/05/20 15:29:55;;;;;;;2.85;1.15;;;;;;;27.52;100.00;98131.88;15300752;19;20092;-78
2022/05/20 15:35:14;;;;;;;2.22;0.90;;;;;;;26.84;100.00;98143.25;15299933;19;20050;-77
2022/05/20 15:40:27;;;;;;;5.20;1.30;;;;;;;26.64;100.00;98132.97;15341064;19;20011;-75
2022/05/20 15:45:31;;;;;;;3.42;1.20;;;;;;;26.41;100.00;98144.22;15286264;19;20018;-76
2022/05/20 15:50:36;;;;;;;7.60;1.33;;;;;;;26.24;100.00;98146.41;15270696;19;20035;-76
2022/05/20 15:55:47;;;;;;;3.33;1.20;;;;;;;26.06;100.00;98142.97;15279751;19;20111;-76
2022/05/20 16:00:53;;;;;;;4.68;1.25;;;;;;;26.07;100.00;98108.75;15279304;19;20106;-77
2022/05/20 16:06:04;;;;;;;3.30;1.15;;;;;;;25.85;100.00;98062.84;15286778;19;20017;-76
2022/05/20 16:11:12;;;;;;;4.18;1.23;;;;;;;25.76;100.00;98058.97;15289879;19;20006;-77
2022/05/20 16:16:17;;;;;;;3.95;1.30;;;;;;;25.60;100.00;98032.41;15296319;19;20010;-77
2022/05/20 16:21:27;;;;;;;4.32;1.30;;;;;;;25.60;100.00;98019.47;15276619;19;20018;-74
2022/05/20 16:26:39;;;;;;;8.65;1.30;;;;;;;25.52;100.00;97998.75;15279647;19;20014;-75
2022/05/20 16:31:44;;;;;;;3.53;1.40;;;;;;;25.44;100.00;97996.50;15273896;19;20015;-76
2022/05/20 16:36:52;;;;;;;3.75;1.30;;;;;;;25.37;100.00;98001.38;15274353;19;20006;-75
2022/05/20 16:41:59;;;;;;;4.18;1.50;;;;;;;25.24;100.00;98009.03;15274348;19;20010;-76
2022/05/20 16:47:07;;;;;;;4.13;1.20;;;;;;;25.13;100.00;98004.56;15273229;19;20013;-77
2022/05/20 16:52:13;;;;;;;3.30;1.42;;;;;;;25.14;100.00;97969.59;15272733;19;20032;-75
2022/05/20 17:02:39;;;;;;;3.80;1.30;;;;;;;25.17;100.00;97939.56;15275929;19;20027;-77
2022/05/20 17:07:44;;;;;;;4.53;1.38;;;;;;;25.13;100.00;97935.66;15272043;19;20364;-77
2022/05/20 17:12:52;;;;;;;3.50;1.33;;;;;;;25.08;100.00;97930.16;15277672;19;20779;-76
2022/05/20 17:17:58;;;;;;;1.73;1.20;;;;;;;24.99;100.00;97905.03;15278192;19;20487;-77
2022/05/20 17:28:24;;;;;;;2.40;1.40;;;;;;;24.76;100.00;97900.75;15275797;19;20024;-78
2022/05/20 17:33:29;;;;;;;3.38;1.40;;;;;;;24.70;100.00;97879.81;15280036;19;20074;-78
2022/05/20 17:38:34;;;;;;;3.25;1.50;;;;;;;24.68;100.00;97859.94;15288586;19;20484;-77
2022/05/20 17:43:41;;;;;;;3.15;1.40;;;;;;;24.57;100.00;97857.13;15270539;19;20078;-77
2022/05/20 17:48:47;;;;;;;3.05;1.60;;;;;;;24.48;100.00;97847.72;15269768;19;20015;-77
2022/05/20 17:53:52;;;;;;;3.72;1.67;;;;;;;24.39;100.00;97854.81;15276739;19;20010;-78
2022/05/20 17:59:00;;;;;;;2.38;1.50;;;;;;;24.29;100.00;97856.38;15266679;19;20510;-76
2022/05/20 18:04:06;;;;;;;3.45;1.70;;;;;;;24.15;100.00;97860.72;15266593;19;20070;-78
2022/05/20 18:09:11;;;;;;;4.20;1.45;;;;;;;23.99;100.00;97848.75;15275126;19;20471;-74
2022/05/20 18:14:19;;;;;;;3.60;1.40;;;;;;;23.76;100.00;97850.72;15286128;19;20010;-77
2022/05/20 18:19:24;;;;;;;3.60;1.48;;;;;;;23.50;100.00;97833.16;15284285;19;20010;-76
2022/05/20 18:24:29;;;;;;;3.15;1.60;;;;;;;23.17;100.00;97818.50;15292386;19;20094;-80
2022/05/20 18:29:38;;;;;;;3.42;1.42;;;;;;;22.93;100.00;97814.13;15305444;19;20015;-79
2022/05/20 18:40:00;;;;;;;3.83;1.50;;;;;;;22.96;100.00;97793.56;15295255;19;20805;-79
2022/05/20 18:45:10;;;;;;;3.92;1.42;;;;;;;22.76;100.00;97891.09;15294633;19;20018;-79
2022/05/20 18:50:17;;;;;;;23.77;3.88;;;;;;;19.16;100.00;98207.41;15306328;19;20042;-78
2022/05/20 18:55:23;;;;;;;7.20;2.00;;;;;;;18.29;100.00;98053.31;15301251;19;20010;-82
2022/05/20 19:00:41;;;;;;;4.13;1.40;;;;;;;17.78;100.00;98047.72;15316193;19;20020;-79
2022/05/20 19:05:47;;;;;;;4.57;1.70;;;;;;;17.49;100.00;98049.13;15361202;19;20077;-86
2022/05/20 19:10:53;;;;;;;3.25;1.40;;;;;;;17.31;100.00;98036.19;15330645;19;20010;-82
2022/05/20 19:16:01;;;;;;;5.47;1.45;;;;;;;17.18;100.00;98037.91;15299037;19;20027;-80
2022/05/20 19:21:06;;;;;;;3.10;1.00;;;;;;;17.17;100.00;98049.84;15290668;19;21011;-79
2022/05/20 19:26:12;;;;;;;3.83;1.27;;;;;;;17.25;100.00;98041.44;15296186;19;20018;-77
2022/05/20 19:31:21;;;;;;;3.67;1.13;;;;;;;17.28;100.00;98045.63;15288965;19;20006;-77
2022/05/20 19:36:32;;;;;;;3.70;1.20;;;;;;;17.20;100.00;98049.41;15298114;19;20475;-78
2022/05/20 19:41:39;;;;;;;3.45;1.40;;;;;;;17.23;100.00;98054.41;15306295;19;20011;-80
2022/05/20 19:46:47;;;;;;;3.40;1.40;;;;;;;17.24;100.00;98038.94;15349108;19;20007;-80
2022/05/20 19:51:59;;;;;;;4.25;1.60;;;;;;;17.24;100.00;98063.44;15285588;19;20023;-77
2022/05/20 20:02:24;;;;;;;6.03;2.10;;;;;;;17.13;100.00;98145.75;15289556;19;20002;-79
2022/05/20 20:07:31;;;;;;;4.35;2.28;;;;;;;17.31;100.00;98083.28;15301644;19;20015;-78
2022/05/20 20:12:35;;;;;;;4.55;2.80;;;;;;;17.35;100.00;98072.81;15297608;19;20042;-78
2022/05/20 20:17:43;;;;;;;6.88;3.25;;;;;;;17.41;100.00;98061.91;15305742;19;20006;-79
2022/05/20 20:28:10;;;;;;;6.15;3.63;;;;;;;17.55;100.00;98098.13;15295247;19;20022;-78
2022/05/20 20:33:18;;;;;;;5.47;2.75;;;;;;;17.57;100.00;98095.16;15295550;19;20010;-78
2022/05/20 20:38:23;;;;;;;6.47;3.40;;;;;;;17.38;100.00;98140.47;15298501;19;20021;-78
2022/05/20 20:43:36;;;;;;;6.55;3.92;;;;;;;17.51;100.00;98151.34;15295165;19;20459;-79
2022/05/20 20:48:44;;;;;;;7.50;3.80;;;;;;;17.57;100.00;98149.63;15309523;19;20006;-80
2022/05/20 20:53:48;;;;;;;4.20;2.60;;;;;;;17.70;100.00;98189.63;15306331;19;20027;-80
2022/05/20 20:58:54;;;;;;;3.33;2.20;;;;;;;17.73;100.00;98172.03;15311216;19;20093;-80
2022/05/20 21:04:03;;;;;;;3.53;2.03;;;;;;;17.73;100.00;98167.41;15298452;19;20018;-80
2022/05/20 21:09:08;;;;;;;4.32;1.77;;;;;;;17.75;100.00;98170.75;15301113;19;20015;-79
2022/05/20 21:14:14;;;;;;;2.83;1.17;;;;;;;17.75;100.00;98137.25;15300156;19;20018;-77
2022/05/20 21:19:25;;;;;;;2.10;1.30;;;;;;;17.81;100.00;98131.78;15296348;19;20037;-79
2022/05/20 21:24:30;;;;;;;2.00;1.20;;;;;;;17.87;100.00;98140.97;15293433;19;20006;-81
2022/05/20 21:29:36;;;;;;;4.07;1.42;;;;;;;17.91;100.00;98152.28;15288433;19;20006;-78
2022/05/20 21:34:44;;;;;;;3.85;1.60;;;;;;;17.87;100.00;98158.16;15282711;19;20019;-80
2022/05/20 21:39:50;;;;;;;3.13;1.50;;;;;;;17.89;100.00;98165.28;15285738;19;20018;-78
2022/05/20 21:44:55;;;;;;;1.75;1.20;;;;;;;17.84;100.00;98169.47;15298277;19;20066;-78
2022/05/20 21:50:04;;;;;;;3.45;1.48;;;;;;;17.81;100.00;98175.38;15299537;19;20018;-79
2022/05/20 21:55:11;;;;;;;2.72;1.40;;;;;;;17.84;100.00;98183.09;15308946;19;20031;-80
2022/05/20 22:11:25;;;;;;;2.55;1.48;;;;;;;17.91;100.00;98180.34;15298684;19;20834;-80
2022/05/20 22:16:29;;;;;;;2.22;1.38;;;;;;;17.84;100.00;98172.19;15304853;19;20018;-79
2022/05/20 22:21:37;;;;;;;0.90;0.85;;;;;;;17.79;100.00;98184.78;15300672;19;20514;-79
2022/05/20 22:26:43;;;;;;;2.17;1.10;;;;;;;17.75;100.00;98159.88;15303023;19;20296;-79
2022/05/20 22:31:48;;;;;;;2.17;1.13;;;;;;;17.54;100.00;98175.44;15300880;19;20014;-80
2022/05/20 22:36:56;;;;;;;1.67;1.08;;;;;;;17.47;100.00;98151.97;15303793;19;20010;-80
2022/05/20 22:42:02;;;;;;;1.20;1.00;;;;;;;17.27;100.00;98179.22;15298185;19;20011;-80
2022/05/20 22:47:07;;;;;;;1.30;1.00;;;;;;;17.15;100.00;98204.34;14786097;19;10000590;-79
2022/05/20 22:52:15;;;;;;;1.52;1.00;;;;;;;17.04;100.00;98214.00;15296899;19;20015;-81
2022/05/20 22:57:19;;;;;;;2.80;1.02;;;;;;;17.02;100.00;98213.38;15301951;19;20472;-79
2022/05/20 23:02:26;;;;;;;1.27;0.80;;;;;;;16.84;100.00;98213.09;15295099;19;20034;-82
2022/05/20 23:07:35;;;;;;;1.88;0.88;;;;;;;16.70;100.00;98206.78;15302027;19;20015;-79
2022/05/20 23:12:41;;;;;;;1.52;1.00;;;;;;;16.66;100.00;98208.25;15297187;19;20019;-79
2022/05/20 23:17:46;;;;;;;1.50;1.00;;;;;;;16.59;100.00;98222.69;15304613;19;20010;-80
2022/05/20 23:23:04;;;;;;;1.52;0.95;;;;;;;16.57;100.00;98230.19;15297892;19;20487;-79
2022/05/20 23:28:13;;;;;;;1.33;0.80;;;;;;;16.59;100.00;98244.44;15354104;19;20047;-81
2022/05/20 23:33:18;;;;;;;1.55;0.93;;;;;;;16.52;100.00;98262.63;15037621;19;5000674;-81
2022/05/20 23:38:24;;;;;;;1.88;1.10;;;;;;;16.40;100.00;98270.50;15296331;19;20083;-79
2022/05/20 23:43:32;;;;;;;1.15;1.05;;;;;;;16.35;100.00;98274.88;15291018;19;20006;-83
2022/05/20 23:48:37;;;;;;;1.58;1.10;;;;;;;16.22;100.00;98279.22;15294125;19;20859;-81
2022/05/20 23:53:42;;;;;;;3.00;1.30;;;;;;;16.06;100.00;98302.13;15287351;19;20019;-82
2022/05/20 23:58:50;;;;;;;4.68;1.77;;;;;;;15.90;100.00;98308.72;15290916;19;20090;-80
